Ashby, Australia

11:34 AM AWST on June 22, 2018 (GMT +0800)
Ashby W.A | | Change Station

Elev 167 ft 31.74 °S, 115.80 °E | Updated 21 seconds ago

Clear
Clear
67.5 °F
Feels Like 67.5 °F
N
4.9
Wind Variable Wind from East
Gusts 6.9 mph

Today
High -- | Low -- °F
--% Chance of Precip.
Yesterday
High -- | Low -- °F
Precip. -- in
Pressure 30.39 in
Visibility -9999.0 miles
Clouds
Dew Point 56 °F
Humidity 66%
Rainfall 0.00 in
Snow Depth Not available.
7:16 AM 5:21 PM
Waxing Gibbous, 68% visible
METAR YPEA 220300Z 03006KT CAVOK 18/13 Q1029 NOSIG
Pressure 30.39 in
Visibility -9999.0 miles
Clouds
Dew Point 56 °F
Humidity 66%
Rainfall 0.00 in
Snow Depth Not available.
7:16 AM 5:21 PM
Waxing Gibbous, 68% visible
METAR YPEA 220300Z 03006KT CAVOK 18/13 Q1029 NOSIG

Get Severe Weather Alerts

Thanks for signing up!

Be on the lookout for a verification email in your inbox.

You'll start receiving the daily forecast at 6 AM.

×

10-Day Weather Forecast

×

Almanac

Astronomy

Jun. 22, 2018 Rise Set
Actual Time
Civil Twilight
Nautical Twilight
Astronomical Twilight
Moon
Length of Visible Light
Length of Day
Tomorrow will be .
, % of the Moon is Illuminated

Today's Extremes

Country Highs Country Lows

Community

WunderPhotos

Category 6

Welcome to Category 6. This is the collective home for Weather Underground's featured writeups by Dr. Jeff Masters (right), Bob Henson (left), Chris Burt, and other regular contributors.

Nearby

Air Quality

  Air Quality AQ Index Pollutant
Not available.

Snow Depth

Station Depth Elevation

Earthquake Activity

City Distance Mag. Time & Date
Minimum magnitude displayed is 2.5.

Coastal Water Temperatures

Place Temperature

Stations

Nearby Weather Stations

Station Location Temp. Windchill Dew Point Humidity Wind Precip. Elev Updated Type